Terminal Aerodrome Forecast
Issued by NWS

Home | Current Version | Previous Version | Text Only | Print | Product List | Glossary On
Versions: 1 2 3 4 5 6 7 8 9 10 11 12 13 14 15 16 17 18 19 20 21 22 23 24 25 26 27 28 29 30 31
328
FTUS42 KCAE 201249 AAB
TAFDNL
TAF AMD
KDNL 201249Z 2013/2112 16005KT P6SM SCT015 OVC080
      TEMPO 2014/2016 OVC012
     FM201700 24010KT P6SM SCT025 BKN050
     FM210000 21004KT P6SM BKN100
     FM210600 VRB03KT 4SM BR OVC050=

USA.gov is the U.S. government's official web portal to all federal, state and local government web resources and services.